Time;durP1;ratioP1;P1;durP2;ratioP2;P2;SDS_P1;SDS_P2;PMS_P1;PMS_P2;Temp;Humidity;BMP_temperature;BMP_pressure;BME280_temperature;BME280_humidity;BME280_pressure;Samples;Min_cycle;Max_cycle;Signal;HPM_P1;HPM_P2
2022/06/22 00:00:18;;;;;;;3.13;1.57;;;14.40;99.90;;;;;;5034000;28;20176;-73
2022/06/22 00:02:48;;;;;;;3.70;1.63;;;14.30;99.90;;;;;;5032454;28;20176;-72
2022/06/22 00:05:17;;;;;;;2.43;1.40;;;14.30;99.90;;;;;;5033543;28;20208;-73
2022/06/22 00:07:49;;;;;;;2.43;1.20;;;14.20;99.90;;;;;;5033553;28;20290;-73
2022/06/22 00:10:29;;;;;;;4.43;1.37;;;14.20;1.00;;;;;;5033850;28;20640;-73
2022/06/22 00:12:57;;;;;;;3.67;1.30;;;14.10;1.00;;;;;;5033708;28;20168;-73
2022/06/22 00:15:31;;;;;;;5.40;1.53;;;14.00;1.00;;;;;;5033371;28;20299;-73
2022/06/22 00:17:57;;;;;;;4.67;1.23;;;14.00;99.90;;;;;;5033444;28;20250;-73
2022/06/22 00:20:26;;;;;;;2.77;1.30;;;13.90;99.90;;;;;;5032176;28;20658;-72
2022/06/22 00:23:21;;;;;;;2.13;1.40;;;13.90;1.00;;;;;;5033617;28;20168;-73
2022/06/22 00:25:47;;;;;;;1.30;1.10;;;13.90;1.00;;;;;;5033130;28;20768;-72
2022/06/22 00:28:28;;;;;;;2.23;1.27;;;13.90;1.00;;;;;;5032069;28;20215;-73
2022/06/22 00:31:13;;;;;;;2.27;1.10;;;13.80;1.00;;;;;;5032300;28;20553;-73
2022/06/22 00:33:39;;;;;;;2.27;1.30;;;13.80;99.90;;;;;;5033174;28;20156;-73
2022/06/22 00:36:12;;;;;;;2.47;1.50;;;13.70;1.00;;;;;;5031707;28;20200;-73
2022/06/22 00:38:38;;;;;;;3.07;1.40;;;13.70;1.00;;;;;;5031918;28;20188;-73
2022/06/22 00:41:24;;;;;;;1.50;1.10;;;13.60;99.90;;;;;;5031822;28;20172;-73
2022/06/22 00:43:52;;;;;;;3.67;1.70;;;13.60;1.00;;;;;;5033122;28;20622;-73
2022/06/22 00:46:21;;;;;;;5.37;1.63;;;13.60;1.00;;;;;;5033248;28;20172;-72
2022/06/22 00:48:51;;;;;;;2.27;1.40;;;13.50;99.90;;;;;;5031660;28;20180;-73
2022/06/22 00:51:21;;;;;;;1.93;1.40;;;13.40;1.00;;;;;;5031732;28;20173;-73
2022/06/22 00:54:19;;;;;;;3.10;1.70;;;13.40;1.00;;;;;;5033176;28;20171;-73
2022/06/22 00:56:55;;;;;;;2.73;1.53;;;13.40;1.00;;;;;;5016542;28;20195;-73
2022/06/22 00:59:33;;;;;;;5.17;1.40;;;13.30;47.70;;;;;;5032895;28;20175;-73
2022/06/22 01:02:16;;;;;;;2.23;1.40;;;13.30;99.90;;;;;;5033215;28;20190;-73
2022/06/22 01:04:57;;;;;;;2.63;1.20;;;13.30;99.90;;;;;;5032848;28;20678;-73
2022/06/22 01:07:30;;;;;;;2.27;1.23;;;13.20;99.90;;;;;;5032870;28;20164;-73
2022/06/22 01:10:19;;;;;;;1.80;1.20;;;13.10;1.00;;;;;;5031580;28;20226;-73
2022/06/22 01:12:54;;;;;;;4.93;1.57;;;13.10;1.00;;;;;;5031523;28;20655;-73
2022/06/22 01:15:34;;;;;;;5.27;1.67;;;13.00;30.50;;;;;;5031422;28;20712;-73
2022/06/22 01:18:08;;;;;;;2.73;1.40;;;13.00;23.60;;;;;;5032964;28;20240;-73
2022/06/22 01:20:40;;;;;;;5.37;1.40;;;13.00;1.00;;;;;;5032664;28;20203;-73
2022/06/22 01:23:21;;;;;;;2.37;1.43;;;13.00;1.00;;;;;;5031442;28;20169;-73
2022/06/22 01:26:21;;;;;;;4.60;1.80;;;12.80;56.40;;;;;;5031218;28;20306;-72
2022/06/22 01:28:58;;;;;;;2.90;1.33;;;12.80;99.90;;;;;;5032795;28;20631;-73
2022/06/22 01:31:24;;;;;;;2.27;1.50;;;12.80;99.90;;;;;;5033024;28;20165;-73
2022/06/22 01:33:52;;;;;;;4.77;1.60;;;12.90;99.90;;;;;;5032553;28;20187;-73
2022/06/22 01:36:47;;;;;;;3.10;1.40;;;12.90;99.90;;;;;;5034452;28;20668;-73
2022/06/22 01:39:13;;;;;;;4.93;1.60;;;12.90;99.90;;;;;;5029551;28;20283;-72
2022/06/22 01:41:38;;;;;;;5.63;1.57;;;12.80;99.90;;;;;;5036267;28;20173;-73
2022/06/22 01:44:21;;;;;;;3.90;1.67;;;12.80;99.90;;;;;;5036183;28;20238;-73
2022/06/22 01:47:05;;;;;;;3.60;1.73;;;12.80;1.00;;;;;;5036273;28;20152;-73
2022/06/22 01:49:36;;;;;;;2.67;1.47;;;12.80;1.00;;;;;;5036432;28;20156;-73
2022/06/22 01:52:21;;;;;;;3.60;1.63;;;12.60;1.00;;;;;;5036191;28;20173;-73
2022/06/22 01:54:55;;;;;;;1.40;1.23;;;12.70;1.00;;;;;;5035980;28;20200;-72
2022/06/22 01:57:28;;;;;;;3.60;1.93;;;12.70;1.00;;;;;;5036246;28;20618;-73
2022/06/22 02:00:02;;;;;;;4.13;1.90;;;12.60;1.00;;;;;;5036304;28;20623;-73
2022/06/22 02:02:39;;;;;;;2.63;1.50;;;12.60;1.00;;;;;;5036335;28;20275;-73
2022/06/22 02:05:36;;;;;;;3.27;1.60;;;12.60;1.00;;;;;;5035992;28;20649;-73
2022/06/22 02:08:20;;;;;;;2.30;1.33;;;12.60;1.00;;;;;;5035971;28;20164;-73
2022/06/22 02:10:59;;;;;;;4.30;1.60;;;12.60;1.00;;;;;;5034525;28;20242;-73
2022/06/22 02:13:37;;;;;;;3.40;1.40;;;12.50;1.00;;;;;;5034514;28;20168;-73
2022/06/22 02:16:18;;;;;;;4.27;1.70;;;12.50;1.00;;;;;;5034431;28;20306;-71
2022/06/22 02:19:10;;;;;;;2.27;1.30;;;12.50;1.00;;;;;;5036240;28;20164;-72
2022/06/22 02:21:42;;;;;;;3.23;1.40;;;12.50;1.00;;;;;;5027496;28;20180;-73
2022/06/22 02:24:12;;;;;;;3.70;2.53;;;12.40;1.00;;;;;;5035629;28;20207;-73
2022/06/22 02:27:01;;;;;;;3.07;1.30;;;12.40;4.20;;;;;;5036032;28;20152;-73
2022/06/22 02:29:40;;;;;;;3.60;1.47;;;12.40;10.20;;;;;;5035793;28;20179;-73
2022/06/22 02:32:09;;;;;;;2.60;1.40;;;12.40;7.80;;;;;;5035332;28;20736;-73
2022/06/22 02:34:38;;;;;;;1.50;1.40;;;12.40;1.00;;;;;;5033936;28;20204;-72
2022/06/22 02:37:07;;;;;;;5.47;1.30;;;12.40;1.00;;;;;;5034078;28;20180;-73
2022/06/22 02:39:37;;;;;;;2.17;1.43;;;12.30;27.40;;;;;;5035591;28;20175;-73
2022/06/22 02:44:49;;;;;;;4.57;1.43;;;12.30;42.10;;;;;;5035551;28;20211;-72
2022/06/22 02:47:26;;;;;;;2.73;1.43;;;12.30;15.40;;;;;;5032734;28;20176;-72
2022/06/22 02:50:07;;;;;;;5.63;1.47;;;12.30;64.60;;;;;;5033849;28;20182;-72
2022/06/22 02:52:39;;;;;;;2.83;1.47;;;12.20;73.70;;;;;;5035637;28;20165;-73
2022/06/22 02:55:09;;;;;;;2.83;1.30;;;12.20;1.00;;;;;;5034820;28;20199;-73
2022/06/22 02:57:46;;;;;;;2.90;1.77;;;12.10;1.00;;;;;;5034955;28;20188;-73
2022/06/22 03:00:17;;;;;;;1.73;1.33;;;12.10;1.00;;;;;;5035199;28;20152;-73
2022/06/22 03:02:43;;;;;;;4.10;1.10;;;12.00;2.00;;;;;;5035162;28;20168;-73
2022/06/22 03:05:11;;;;;;;2.17;1.37;;;11.90;62.30;;;;;;5034702;28;20200;-74
2022/06/22 03:07:40;;;;;;;2.23;1.43;;;11.90;1.00;;;;;;5034759;28;20226;-74
2022/06/22 03:10:17;;;;;;;5.63;1.90;;;11.90;1.00;;;;;;5033457;28;20230;-73
2022/06/22 03:12:43;;;;;;;7.57;1.43;;;11.80;63.80;;;;;;5033147;28;20176;-72
2022/06/22 03:15:16;;;;;;;1.60;1.27;;;11.80;74.00;;;;;;5034527;28;20551;-73
2022/06/22 03:17:42;;;;;;;2.27;1.50;;;11.70;94.50;;;;;;5034926;28;20279;-73
2022/06/22 03:20:24;;;;;;;3.20;1.60;;;11.70;99.90;;;;;;5034545;28;20184;-73
2022/06/22 03:22:53;;;;;;;2.30;1.30;;;11.70;99.90;;;;;;5034460;28;20252;-73
2022/06/22 03:25:27;;;;;;;3.80;1.60;;;11.80;99.90;;;;;;5034500;28;20307;-73
2022/06/22 03:27:58;;;;;;;2.83;1.70;;;11.80;99.90;;;;;;5034797;28;20199;-73
2022/06/22 03:30:32;;;;;;;3.20;1.77;;;11.80;99.90;;;;;;5034655;28;20161;-73
2022/06/22 03:33:09;;;;;;;2.70;1.50;;;11.80;99.90;;;;;;5034569;28;20176;-73
2022/06/22 03:35:44;;;;;;;4.43;1.87;;;11.80;99.90;;;;;;5034247;28;20196;-73
2022/06/22 03:38:24;;;;;;;2.80;1.50;;;11.80;99.90;;;;;;5033009;28;20557;-73
2022/06/22 03:40:54;;;;;;;2.93;1.77;;;11.80;99.90;;;;;;5034396;28;20642;-73
2022/06/22 03:43:26;;;;;;;3.27;1.53;;;11.80;99.90;;;;;;5034279;28;20164;-73
2022/06/22 03:46:16;;;;;;;3.27;1.60;;;11.80;99.90;;;;;;5034389;28;20245;-73
2022/06/22 03:48:47;;;;;;;3.57;1.50;;;11.80;99.90;;;;;;5025057;28;20196;-72
2022/06/22 03:51:21;;;;;;;3.47;1.83;;;11.80;99.90;;;;;;5034183;28;20239;-73
2022/06/22 03:53:57;;;;;;;3.47;1.80;;;11.80;99.90;;;;;;5032523;28;20168;-72
2022/06/22 03:56:28;;;;;;;2.10;1.50;;;11.80;99.90;;;;;;5032493;28;20202;-73
2022/06/22 03:58:54;;;;;;;2.73;1.57;;;11.80;99.90;;;;;;5033440;28;20153;-73
2022/06/22 04:01:22;;;;;;;3.43;1.70;;;11.80;99.90;;;;;;5033600;28;20589;-72
2022/06/22 04:03:49;;;;;;;1.77;1.60;;;11.70;99.90;;;;;;5033622;28;20177;-72
2022/06/22 04:06:25;;;;;;;1.77;1.50;;;11.70;99.90;;;;;;5033903;28;20549;-72
2022/06/22 04:08:51;;;;;;;3.07;1.60;;;11.80;99.90;;;;;;5033835;28;20172;-72
2022/06/22 04:11:46;;;;;;;2.00;1.80;;;11.80;99.90;;;;;;5032301;28;20552;-72
2022/06/22 04:14:36;;;;;;;2.73;1.87;;;11.80;99.90;;;;;;5033518;28;20620;-72
2022/06/22 04:17:20;;;;;;;3.97;1.40;;;11.80;99.90;;;;;;5033714;28;20157;-72
2022/06/22 04:20:14;;;;;;;3.83;1.70;;;11.80;99.90;;;;;;5033440;28;20167;-72
2022/06/22 04:22:43;;;;;;;3.43;1.50;;;11.90;99.90;;;;;;5032078;28;20692;-72
2022/06/22 04:25:27;;;;;;;2.87;1.40;;;11.90;99.90;;;;;;5033188;28;20204;-72
2022/06/22 04:27:55;;;;;;;2.40;1.40;;;11.90;99.90;;;;;;5033490;28;20661;-73
2022/06/22 04:30:26;;;;;;;3.60;1.50;;;11.90;99.90;;;;;;5033480;28;20176;-72
2022/06/22 04:33:09;;;;;;;2.97;1.37;;;11.90;99.90;;;;;;5033284;28;20642;-72
2022/06/22 04:35:43;;;;;;;4.73;1.30;;;11.90;99.90;;;;;;5033248;28;20226;-72
2022/06/22 04:38:26;;;;;;;3.40;1.53;;;12.00;99.90;;;;;;5033261;28;20176;-72
2022/06/22 04:41:17;;;;;;;2.90;1.60;;;12.00;99.90;;;;;;5033223;28;20567;-72
2022/06/22 04:43:43;;;;;;;3.53;1.67;;;12.10;99.90;;;;;;5031734;28;20660;-72
2022/06/22 04:46:13;;;;;;;1.77;1.60;;;12.10;99.90;;;;;;5033636;28;20175;-72
2022/06/22 04:48:44;;;;;;;3.00;1.50;;;12.10;99.90;;;;;;5033936;28;20523;-73
2022/06/22 04:51:19;;;;;;;3.17;1.57;;;12.10;99.90;;;;;;5033325;28;20179;-72
2022/06/22 04:54:13;;;;;;;4.40;1.73;;;12.20;99.90;;;;;;5033193;28;20618;-72
2022/06/22 04:56:43;;;;;;;3.83;1.63;;;12.20;99.90;;;;;;5024230;28;20283;-72
2022/06/22 04:59:12;;;;;;;4.03;1.60;;;12.20;99.90;;;;;;5032997;28;20156;-72
2022/06/22 05:01:55;;;;;;;2.57;1.60;;;12.30;99.90;;;;;;5032930;28;20168;-73
2022/06/22 05:04:29;;;;;;;2.43;1.93;;;12.30;99.90;;;;;;5031610;28;20192;-73
2022/06/22 05:07:17;;;;;;;4.73;1.63;;;12.30;99.90;;;;;;5033115;28;20160;-74
2022/06/22 05:10:11;;;;;;;4.13;1.90;;;12.40;99.90;;;;;;5031584;28;20518;-71
2022/06/22 05:12:55;;;;;;;2.23;1.77;;;12.40;99.90;;;;;;5036819;28;20164;-73
2022/06/22 05:15:26;;;;;;;4.47;1.67;;;12.50;99.90;;;;;;5034223;28;20204;-73
2022/06/22 05:17:52;;;;;;;4.27;2.00;;;12.50;99.90;;;;;;5036337;28;20558;-73
2022/06/22 05:20:31;;;;;;;2.60;1.50;;;12.60;99.90;;;;;;5036659;28;20662;-72
2022/06/22 05:23:00;;;;;;;3.07;1.60;;;12.60;99.90;;;;;;5036736;28;20153;-72
2022/06/22 05:25:27;;;;;;;3.40;2.10;;;12.70;99.90;;;;;;5036288;28;20238;-73
2022/06/22 05:28:02;;;;;;;5.23;2.20;;;12.80;99.90;;;;;;5036714;28;20188;-73
2022/06/22 05:31:06;;;;;;;5.07;1.97;;;12.90;99.90;;;;;;5036520;28;20167;-73
2022/06/22 05:33:36;;;;;;;2.53;2.07;;;12.90;99.90;;;;;;5035220;28;20526;-74
2022/06/22 05:36:05;;;;;;;1.70;1.60;;;13.00;99.90;;;;;;5036364;28;20227;-73
2022/06/22 05:38:34;;;;;;;3.97;2.30;;;13.10;99.90;;;;;;5036379;28;20233;-72
2022/06/22 05:41:04;;;;;;;5.87;2.60;;;13.20;99.90;;;;;;5036278;28;20660;-73
2022/06/22 05:43:32;;;;;;;2.67;2.20;;;13.30;99.90;;;;;;5036519;28;20612;-73
2022/06/22 05:46:02;;;;;;;2.63;1.90;;;13.50;99.90;;;;;;5035015;28;20180;-73
2022/06/22 05:48:29;;;;;;;4.57;3.00;;;13.60;99.90;;;;;;5035249;28;20172;-73
2022/06/22 05:51:01;;;;;;;2.90;1.87;;;13.80;99.90;;;;;;5035221;28;20215;-73
2022/06/22 05:53:44;;;;;;;5.13;2.10;;;13.90;99.90;;;;;;5036133;28;20588;-73
2022/06/22 05:56:33;;;;;;;2.73;2.40;;;14.00;99.90;;;;;;5036332;28;20326;-73
2022/06/22 05:59:15;;;;;;;4.70;1.90;;;14.10;99.90;;;;;;5036160;28;20668;-73
2022/06/22 06:02:21;;;;;;;3.20;2.00;;;14.30;99.90;;;;;;5034626;28;20251;-73
2022/06/22 06:05:00;;;;;;;4.23;2.30;;;14.40;99.90;;;;;;5034681;28;20249;-73
2022/06/22 06:07:34;;;;;;;3.43;2.20;;;14.50;99.90;;;;;;5034636;28;20168;-74
2022/06/22 06:10:03;;;;;;;3.73;1.83;;;14.60;99.90;;;;;;5036142;28;20191;-74
2022/06/22 06:12:35;;;;;;;6.20;2.27;;;14.60;99.90;;;;;;5034413;28;20176;-73
2022/06/22 06:15:04;;;;;;;2.37;1.83;;;14.70;99.90;;;;;;5034344;28;20199;-73
2022/06/22 06:17:32;;;;;;;5.07;2.77;;;14.80;99.90;;;;;;5035672;28;20653;-74
2022/06/22 06:20:00;;;;;;;2.07;1.87;;;14.90;99.90;;;;;;5034313;28;20200;-73
2022/06/22 06:22:28;;;;;;;4.20;2.13;;;15.00;99.90;;;;;;5034058;28;20168;-74
2022/06/22 06:27:58;;;;;;;5.63;2.47;;;15.20;99.90;;;;;;5035985;28;20209;-73
2022/06/22 06:30:29;;;;;;;3.83;1.80;;;15.30;1.00;;;;;;5035817;28;20156;-74
2022/06/22 06:33:01;;;;;;;7.60;1.90;;;15.40;1.00;;;;;;5035392;28;20168;-73
2022/06/22 06:35:38;;;;;;;4.20;2.33;;;15.50;99.90;;;;;;5035187;28;20574;-74
2022/06/22 06:38:12;;;;;;;8.57;2.20;;;15.60;99.90;;;;;;5035325;28;20160;-73
2022/06/22 06:41:05;;;;;;;4.87;2.17;;;15.80;1.00;;;;;;5035848;28;20293;-73
2022/06/22 06:43:39;;;;;;;8.90;2.40;;;15.90;99.90;;;;;;5025869;28;20202;-73
2022/06/22 06:46:15;;;;;;;8.60;2.40;;;16.00;1.00;;;;;;5035402;28;20630;-73
2022/06/22 06:48:46;;;;;;;4.13;1.90;;;16.10;13.00;;;;;;5035375;28;20172;-74
2022/06/22 06:51:15;;;;;;;3.80;1.87;;;16.20;99.90;;;;;;5033743;28;20590;-73
2022/06/22 06:53:51;;;;;;;4.10;1.60;;;16.40;1.00;;;;;;5034955;28;20570;-73
2022/06/22 06:56:33;;;;;;;2.97;1.63;;;16.40;1.00;;;;;;5035199;28;20191;-74
2022/06/22 06:59:03;;;;;;;3.03;1.70;;;16.50;1.00;;;;;;5034901;28;20246;-73
2022/06/22 07:01:33;;;;;;;5.97;1.63;;;16.50;57.10;;;;;;5034193;28;20173;-73
2022/06/22 07:04:11;;;;;;;4.03;1.80;;;16.60;1.00;;;;;;5035012;28;20191;-73
2022/06/22 07:06:37;;;;;;;6.43;1.93;;;16.80;1.00;;;;;;5035285;28;20171;-73
2022/06/22 07:09:38;;;;;;;6.43;1.80;;;16.90;99.90;;;;;;5034770;28;20172;-73
2022/06/22 07:12:35;;;;;;;3.17;1.73;;;17.10;99.90;;;;;;5032112;28;20195;-73
2022/06/22 07:15:03;;;;;;;5.43;1.87;;;17.20;99.90;;;;;;5034635;28;20208;-73
2022/06/22 07:17:32;;;;;;;10.93;2.60;;;17.30;1.00;;;;;;5033260;28;20215;-73
2022/06/22 07:20:04;;;;;;;3.43;2.20;;;17.50;99.90;;;;;;5034692;28;20164;-73
2022/06/22 07:22:45;;;;;;;10.90;2.50;;;17.60;1.00;;;;;;5034667;28;20236;-73
2022/06/22 07:25:18;;;;;;;5.10;2.10;;;17.80;99.90;;;;;;5034374;28;20211;-73
2022/06/22 07:28:19;;;;;;;6.27;2.30;;;17.90;99.90;;;;;;5034390;28;20635;-73
2022/06/22 07:30:47;;;;;;;7.50;1.87;;;18.00;99.90;;;;;;5019053;28;20237;-73
2022/06/22 07:33:19;;;;;;;3.23;2.00;;;18.10;1.00;;;;;;5032368;28;20215;-73
2022/06/22 07:36:06;;;;;;;3.83;2.10;;;18.20;1.00;;;;;;5034156;28;20204;-73
2022/06/22 07:38:56;;;;;;;7.40;2.00;;;18.40;99.90;;;;;;5034172;28;20297;-73
2022/06/22 07:41:25;;;;;;;6.70;1.93;;;18.40;99.90;;;;;;5032888;28;20165;-73
2022/06/22 07:44:04;;;;;;;3.23;1.60;;;18.30;1.00;;;;;;5034188;28;20221;-73
2022/06/22 07:46:44;;;;;;;3.33;2.03;;;18.60;99.90;;;;;;5034958;28;20195;-73
2022/06/22 07:49:28;;;;;;;3.33;1.37;;;18.70;29.50;;;;;;5035084;28;20206;-73
2022/06/22 07:51:56;;;;;;;3.37;1.70;;;18.80;99.90;;;;;;5034233;28;20156;-73
2022/06/22 07:54:32;;;;;;;4.57;1.50;;;18.80;70.00;;;;;;5034000;28;20670;-73
2022/06/22 07:57:27;;;;;;;4.30;1.70;;;18.90;99.90;;;;;;5032663;28;20168;-73
2022/06/22 08:00:02;;;;;;;4.27;1.80;;;19.00;1.00;;;;;;5034253;28;20865;-75
2022/06/22 08:02:35;;;;;;;4.47;1.80;;;19.10;99.90;;;;;;5032500;28;20152;-76
2022/06/22 08:05:14;;;;;;;2.73;1.57;;;19.20;1.00;;;;;;5032289;28;20246;-74
2022/06/22 08:07:50;;;;;;;6.40;1.70;;;19.40;99.90;;;;;;5031669;28;20172;-74
2022/06/22 08:10:24;;;;;;;2.37;1.60;;;19.50;1.00;;;;;;5032012;28;20156;-74
2022/06/22 08:12:52;;;;;;;4.00;1.47;;;19.60;99.90;;;;;;5031917;28;20206;-74
2022/06/22 08:15:20;;;;;;;3.73;1.53;;;19.70;6.90;;;;;;5032972;28;20235;-73
2022/06/22 08:17:52;;;;;;;5.40;1.83;;;19.80;99.90;;;;;;5032294;28;20168;-73
2022/06/22 08:20:37;;;;;;;11.00;2.00;;;19.80;99.90;;;;;;5033841;28;20222;-74
2022/06/22 08:23:06;;;;;;;3.40;1.80;;;19.80;99.90;;;;;;5033485;28;20231;-73
2022/06/22 08:25:33;;;;;;;4.77;1.53;;;19.90;99.90;;;;;;5033334;28;20204;-73
2022/06/22 08:27:59;;;;;;;4.60;1.30;;;20.00;99.90;;;;;;5033439;28;20172;-74
2022/06/22 08:30:26;;;;;;;2.70;1.63;;;20.00;99.90;;;;;;5032107;28;20562;-74
2022/06/22 08:33:07;;;;;;;2.50;1.43;;;20.10;78.60;;;;;;5032045;28;20180;-73
2022/06/22 08:36:10;;;;;;;2.27;1.30;;;20.30;1.00;;;;;;5031916;28;20557;-74
2022/06/22 08:38:55;;;;;;;3.37;1.60;;;20.40;1.00;;;;;;5002364;28;20688;-73
2022/06/22 08:42:05;;;;;;;2.73;1.40;;;20.50;1.00;;;;;;5033443;28;20245;-74
2022/06/22 08:44:58;;;;;;;3.63;1.57;;;20.60;99.90;;;;;;5032598;28;20192;-74
2022/06/22 08:47:42;;;;;;;4.10;1.50;;;20.80;99.90;;;;;;5031717;28;20634;-74
2022/06/22 08:50:39;;;;;;;2.60;1.60;;;20.90;99.90;;;;;;5033068;28;20295;-74
2022/06/22 08:53:28;;;;;;;3.70;1.40;;;21.00;99.90;;;;;;5032983;28;20210;-74
2022/06/22 08:56:30;;;;;;;1.60;1.10;;;21.10;99.90;;;;;;5031660;28;20298;-74
2022/06/22 08:59:04;;;;;;;2.50;1.37;;;21.20;99.90;;;;;;5033017;28;20519;-73
2022/06/22 09:02:11;;;;;;;3.73;1.37;;;21.20;99.90;;;;;;5033258;28;20161;-74
2022/06/22 09:04:58;;;;;;;2.40;1.23;;;21.30;91.50;;;;;;4972016;28;20204;-74
2022/06/22 09:07:52;;;;;;;2.87;1.20;;;21.50;99.90;;;;;;5029208;28;20260;-74
2022/06/22 09:10:30;;;;;;;3.93;1.40;;;21.60;99.90;;;;;;5032880;28;20207;-74
2022/06/22 09:13:01;;;;;;;5.97;1.30;;;21.70;11.50;;;;;;5032951;28;20218;-74
2022/06/22 09:15:35;;;;;;;4.40;1.23;;;21.80;1.00;;;;;;5032665;28;20208;-74
2022/06/22 09:18:19;;;;;;;3.10;1.27;;;21.80;1.00;;;;;;5031539;28;20167;-74
2022/06/22 09:21:05;;;;;;;5.40;1.20;;;22.00;1.00;;;;;;5033042;28;20148;-73
2022/06/22 09:24:04;;;;;;;4.63;1.30;;;22.10;99.90;;;;;;5032893;28;20196;-73
2022/06/22 09:26:47;;;;;;;1.97;1.10;;;22.20;1.00;;;;;;5031452;28;20188;-74
2022/06/22 09:29:19;;;;;;;1.33;1.07;;;22.20;1.00;;;;;;5031392;28;20180;-74
2022/06/22 09:31:58;;;;;;;1.80;1.13;;;22.30;1.00;;;;;;5032607;28;20183;-74
2022/06/22 09:34:47;;;;;;;2.87;1.40;;;22.30;99.90;;;;;;5032494;28;20267;-73
2022/06/22 09:37:32;;;;;;;2.90;1.00;;;22.40;1.00;;;;;;5032837;28;20161;-74
2022/06/22 09:40:22;;;;;;;5.50;1.17;;;22.50;1.00;;;;;;5032871;28;20158;-74
2022/06/22 09:43:26;;;;;;;1.90;0.97;;;22.50;1.00;;;;;;5032778;28;20239;-74
2022/06/22 09:46:11;;;;;;;2.73;1.20;;;22.70;1.00;;;;;;5032555;28;20204;-74
2022/06/22 09:49:02;;;;;;;3.67;1.00;;;22.80;1.00;;;;;;5031254;28;20164;-74
2022/06/22 09:51:48;;;;;;;1.67;0.90;;;22.80;99.90;;;;;;5032313;28;20163;-74
2022/06/22 09:57:31;;;;;;;3.07;1.33;;;23.00;99.90;;;;;;5034717;28;20167;-75
2022/06/22 10:00:02;;;;;;;3.90;1.30;;;23.10;99.90;;;;;;5036343;28;20515;-75
2022/06/22 10:02:46;;;;;;;2.50;1.40;;;23.20;35.40;;;;;;5034810;28;20218;-75
2022/06/22 10:05:50;;;;;;;2.33;1.47;;;23.40;1.00;;;;;;5036119;28;20692;-75
2022/06/22 10:08:36;;;;;;;2.27;1.07;;;23.40;1.00;;;;;;5035864;28;20160;-75
2022/06/22 10:11:28;;;;;;;2.77;1.40;;;23.40;1.00;;;;;;5035917;28;20267;-75
2022/06/22 10:14:05;;;;;;;1.33;1.00;;;23.50;1.00;;;;;;5035980;28;20568;-75
2022/06/22 10:16:37;;;;;;;1.47;1.17;;;23.60;1.00;;;;;;5035638;28;20555;-77
2022/06/22 10:19:37;;;;;;;2.10;1.30;;;23.70;1.00;;;;;;5035400;28;20160;-75
2022/06/22 10:22:47;;;;;;;4.53;1.30;;;23.70;1.00;;;;;;5035091;28;20167;-74
2022/06/22 10:25:49;;;;;;;2.70;1.20;;;23.70;1.00;;;;;;5018334;28;20732;-75
2022/06/22 10:28:56;;;;;;;4.50;1.70;;;23.80;1.00;;;;;;5035118;28;20164;-75
2022/06/22 10:31:47;;;;;;;3.97;1.03;;;23.90;1.00;;;;;;5026755;28;20195;-75
2022/06/22 10:34:42;;;;;;;4.77;1.00;;;23.90;1.00;;;;;;5035040;28;20196;-75
2022/06/22 10:37:10;;;;;;;3.17;1.40;;;23.90;1.00;;;;;;5033630;28;20244;-75
2022/06/22 10:39:48;;;;;;;4.93;1.20;;;24.00;1.00;;;;;;5033560;28;20176;-75
2022/06/22 10:45:44;;;;;;;1.77;1.07;;;24.10;1.00;;;;;;5034817;28;20211;-75
2022/06/22 10:48:42;;;;;;;3.93;1.17;;;24.10;1.00;;;;;;5034962;28;20164;-75
2022/06/22 10:51:25;;;;;;;1.97;1.30;;;24.20;1.00;;;;;;5033937;28;20153;-76
2022/06/22 10:54:28;;;;;;;3.53;1.23;;;24.30;1.00;;;;;;5034329;28;20685;-75
2022/06/22 10:57:18;;;;;;;2.50;1.20;;;24.40;1.00;;;;;;5034522;28;20219;-75
2022/06/22 10:59:43;;;;;;;3.83;1.13;;;24.40;1.00;;;;;;5034762;28;20164;-74
2022/06/22 11:02:46;;;;;;;1.90;0.90;;;24.50;1.00;;;;;;5034684;28;20282;-75
2022/06/22 11:05:43;;;;;;;2.50;1.00;;;24.50;1.00;;;;;;5034371;28;20616;-75
2022/06/22 11:08:32;;;;;;;2.63;1.07;;;24.60;1.00;;;;;;5032272;28;20709;-75
2022/06/22 11:10:58;;;;;;;5.70;1.30;;;24.70;1.00;;;;;;5034729;28;20167;-74
2022/06/22 11:13:45;;;;;;;2.93;1.40;;;24.70;1.00;;;;;;5034266;28;20172;-75
2022/06/22 11:16:31;;;;;;;2.00;0.87;;;24.70;1.00;;;;;;5034618;28;20199;-75
2022/06/22 11:19:41;;;;;;;3.37;1.47;;;24.70;1.00;;;;;;5033686;28;20207;-74
2022/06/22 11:22:28;;;;;;;2.07;0.90;;;24.80;1.00;;;;;;5034009;28;20172;-75
2022/06/22 11:25:14;;;;;;;4.10;1.07;;;24.90;1.00;;;;;;5032444;28;20674;-75
2022/06/22 11:30:51;;;;;;;1.73;0.90;;;24.90;1.00;;;;;;5034080;28;20299;-75
2022/06/22 11:33:54;;;;;;;2.03;1.47;;;24.90;1.00;;;;;;5034054;28;20172;-75
2022/06/22 11:36:38;;;;;;;2.27;1.13;;;25.00;1.00;;;;;;5033864;28;20231;-74
2022/06/22 11:39:49;;;;;;;2.97;1.00;;;25.00;1.00;;;;;;5032605;28;20256;-74
2022/06/22 11:42:17;;;;;;;6.87;1.17;;;25.00;1.00;;;;;;5032521;28;20190;-74
2022/06/22 11:48:17;;;;;;;5.40;1.30;;;25.10;1.00;;;;;;5033557;28;20283;-76
2022/06/22 11:50:48;;;;;;;3.93;1.00;;;25.10;1.00;;;;;;5031332;28;20175;-76
2022/06/22 11:53:50;;;;;;;3.00;1.10;;;25.20;1.00;;;;;;5033557;28;20161;-75
2022/06/22 11:56:24;;;;;;;1.67;0.93;;;25.20;1.00;;;;;;5033488;28;20188;-74
2022/06/22 11:59:08;;;;;;;1.20;1.10;;;25.20;1.00;;;;;;5033449;28;20155;-74
2022/06/22 12:01:51;;;;;;;1.20;1.10;;;25.20;1.00;;;;;;5032158;28;20283;-74
2022/06/22 12:04:32;;;;;;;4.53;1.25;;;25.20;1.00;;;;;;5033737;28;20704;-74
2022/06/22 12:07:36;;;;;;;2.30;1.33;;;25.30;1.00;;;;;;5033616;28;20157;-74
2022/06/22 12:10:15;;;;;;;2.73;1.23;;;25.30;1.00;;;;;;4972543;28;20178;-74
2022/06/22 12:13:06;;;;;;;3.33;1.23;;;25.40;1.00;;;;;;5027803;28;20241;-74
2022/06/22 12:15:41;;;;;;;2.57;1.17;;;25.50;1.00;;;;;;5022583;28;20243;-74
2022/06/22 12:18:39;;;;;;;3.50;1.20;;;25.50;1.00;;;;;;5033572;28;20158;-74
2022/06/22 12:21:29;;;;;;;3.95;1.08;;;25.60;1.00;;;;;;5031619;28;20156;-74
2022/06/22 12:24:19;;;;;;;3.65;1.20;;;25.80;1.00;;;;;;5033294;28;20226;-74
2022/06/22 12:27:26;;;;;;;3.03;1.27;;;25.90;1.00;;;;;;5033623;28;20231;-74
2022/06/22 12:30:08;;;;;;;2.28;0.98;;;25.90;1.00;;;;;;5000065;28;20279;-74
2022/06/22 12:32:46;;;;;;;3.60;0.95;;;26.00;1.00;;;;;;5033134;28;20171;-73
2022/06/22 12:35:31;;;;;;;1.80;1.23;;;26.10;1.00;;;;;;5030885;28;20503;-75
2022/06/22 12:38:03;;;;;;;4.15;1.00;;;26.10;1.00;;;;;;5031131;28;20163;-75
2022/06/22 12:40:58;;;;;;;2.85;1.08;;;26.20;1.00;;;;;;5030937;28;20211;-74
2022/06/22 12:43:26;;;;;;;4.45;1.13;;;26.20;1.00;;;;;;5032430;28;20299;-74
2022/06/22 12:45:57;;;;;;;3.40;1.20;;;26.20;1.00;;;;;;5032697;28;20200;-74
2022/06/22 12:48:25;;;;;;;2.85;1.27;;;26.20;1.00;;;;;;5033388;28;20181;-74
2022/06/22 12:51:08;;;;;;;2.25;0.90;;;26.30;1.00;;;;;;5032709;28;20198;-73
2022/06/22 12:53:52;;;;;;;1.80;1.08;;;26.40;1.00;;;;;;5032637;28;20172;-75
2022/06/22 12:56:31;;;;;;;3.50;1.30;;;26.40;1.00;;;;;;5032868;28;20196;-74
2022/06/22 12:59:04;;;;;;;2.33;1.02;;;26.50;1.00;;;;;;5031421;28;20190;-74
2022/06/22 13:01:31;;;;;;;1.95;1.08;;;26.60;1.00;;;;;;5032889;28;20157;-74
2022/06/22 13:04:02;;;;;;;1.55;0.90;;;26.70;1.00;;;;;;5032513;28;20191;-74
2022/06/22 13:06:30;;;;;;;3.40;0.93;;;26.80;1.00;;;;;;5031312;28;20164;-74
2022/06/22 13:08:57;;;;;;;4.70;0.90;;;26.80;1.00;;;;;;5032521;28;20168;-74
2022/06/22 13:11:25;;;;;;;1.60;1.30;;;26.80;1.00;;;;;;5032728;28;20176;-75
2022/06/22 13:14:03;;;;;;;3.78;1.13;;;26.90;1.00;;;;;;5032355;28;20172;-74
2022/06/22 13:16:40;;;;;;;7.28;1.23;;;26.90;1.00;;;;;;5032717;28;20196;-74
2022/06/22 13:19:19;;;;;;;2.38;1.00;;;27.00;1.00;;;;;;5033004;28;20157;-74
2022/06/22 13:22:03;;;;;;;4.18;0.90;;;27.00;1.00;;;;;;5032534;28;20148;-75
2022/06/22 13:24:45;;;;;;;5.05;1.13;;;27.10;1.00;;;;;;5032521;28;20196;-75
2022/06/22 13:27:29;;;;;;;4.13;1.30;;;27.10;1.00;;;;;;5033149;28;20157;-75
2022/06/22 13:30:01;;;;;;;2.45;1.10;;;27.30;1.00;;;;;;5031590;28;20522;-74
2022/06/22 13:32:28;;;;;;;3.05;1.10;;;27.40;1.00;;;;;;5034667;28;20168;-74
2022/06/22 13:35:00;;;;;;;2.35;1.02;;;27.50;1.00;;;;;;5036233;28;20207;-75
2022/06/22 13:37:42;;;;;;;2.50;1.27;;;27.80;1.00;;;;;;5036573;28;20231;-74
2022/06/22 13:40:26;;;;;;;1.77;0.82;;;27.80;1.00;;;;;;5035909;28;20153;-76
2022/06/22 13:43:06;;;;;;;1.67;0.82;;;27.90;1.00;;;;;;5036010;28;20236;-75
2022/06/22 13:45:56;;;;;;;2.95;1.05;;;28.00;1.00;;;;;;5037854;28;20188;-75
2022/06/22 13:48:25;;;;;;;3.05;1.13;;;28.00;1.00;;;;;;5036280;28;20179;-74
2022/06/22 13:51:18;;;;;;;1.88;0.90;;;28.10;1.00;;;;;;5036021;28;20177;-73
2022/06/22 13:54:27;;;;;;;1.92;0.95;;;28.20;1.00;;;;;;5034827;28;20161;-74
2022/06/22 13:56:57;;;;;;;1.85;0.90;;;28.30;1.00;;;;;;5036094;28;20192;-74
2022/06/22 13:59:47;;;;;;;0.95;0.80;;;28.30;1.00;;;;;;5036059;28;20164;-75
2022/06/22 14:02:27;;;;;;;1.90;0.80;;;28.40;1.00;;;;;;5035914;28;20335;-75
2022/06/22 14:05:02;;;;;;;2.78;0.90;;;28.40;1.00;;;;;;5035875;28;20685;-75
2022/06/22 14:07:34;;;;;;;2.75;0.98;;;28.60;1.00;;;;;;5036309;28;20164;-75
2022/06/22 14:10:45;;;;;;;0.85;0.75;;;28.70;1.00;;;;;;5036172;28;20631;-75
2022/06/22 14:13:25;;;;;;;3.45;1.08;;;28.70;1.00;;;;;;4994474;28;20181;-74